Tiempo atmosférico en la estación meteorológica de Llimiana, Lleida (515 m.)



Fecha
DESCASC
Temp. máxima en grados centígrados (hora)
DESCASC
Temp. mínima en grados centígrados (hora)
DESCASC
Temp. media en grados centígrados
DESCASC
Racha de viento máxima en m/sg (hora)
DESCASC
Velocidad máxima media en intervalos de 10 minutos(hora)
DESCASC
Precipitaciones diarias en mm
DESCASC
Precipitaciones de 00:00 a 06:00 en mm
DESCASC
Precipitaciones de 06:00 a 12:00 en mm
DESCASC
Precipitaciones de 12:00 a 18:00 en mm
DESCASC
Precipitaciones de 18:00 a 24:00 en mm
DESCASC
18-11-2019 12.6 (13:40) 1.3 (07:50) 7 8.61 (15:10) 5 (14:50) 0 0 0 0 0
17-11-2019 9.3 (15:20) -2 (06:20) 3.7 6.39 (18:10) 3.06 (18:30) 0 0 0 0 0
16-11-2019 8.9 (14:20) 0.2 (23:50) 4.5 5.83 (16:00) 3.61 (16:40) 0.2 0.2 0 0 0
15-11-2019 6.2 (13:00) -1.7 (07:20) 2.2 6.67 (14:30) 3.89 (14:10) 0.8 0 0.2 0.6 0
14-11-2019 9.9 (14:50) 0.3 (00:00) 5.1 6.94 (16:50) 4.17 (16:50) 5.8 1 4.8 0 0
13-11-2019 15.2 (14:40) 2 (00:00) 8.6 8.61 (15:50) 4.72 (15:50) 0 0 0 0 0
12-11-2019 16.1 (15:00) -1.2 (-00:0) 7.5 8.06 (15:50) 5 (15:20) 0 0 0 0 0
11-11-2019 13.3 (14:50) -0.1 (05:20) 6.6 7.5 (16:00) 4.44 (15:10) 0 0 0 0 0
10-11-2019 14.9 (15:20) 3.4 (00:00) 9.1 5 (01:10) 3.06 (01:10) 0.6 0.6 0 0 0
09-11-2019 13.4 (13:30) -0.4 (00:00) 6.5 5.83 (20:10) 3.06 (19:00) 0 0 0 0 0
08-11-2019 13.1 (14:00) 2.1 (00:00) 7.6 12.78 (14:40) 8.33 (14:40) 0 0 0 0 0
07-11-2019 12.7 (16:20) 4.3 (00:00) 8.5 5 (12:30) 2.5 (17:30) 2 0 0.4 1.6 0
06-11-2019 16.2 (14:10) 2.1 (00:00) 9.2 3.89 (15:00) 2.22 (07:30) 0 0 0 0 0
05-11-2019 15.1 (11:30) 6.9 (00:00) 11 9.72 (16:10) 5.28 (10:00) 0 0 0 0 0
04-11-2019 19.9 (15:00) 7.9 (00:00) 13.9 10.83 (15:50) 5.56 (16:20) 3.4 0 0 0 3.4
03-11-2019 17.6 (15:40) 8.2 (00:00) 12.9 17.78 (17:10) 9.44 (09:10) 1.4 1.2 0.2 0 0
02-11-2019 18.3 (16:00) 11.7 (00:00) 15 6.39 (23:59) 3.33 (00:10) 1.2 0 0 0 1.2
01-11-2019 17.6 (15:50) 8.7 (00:00) 13.2 4.17 (23:59) 2.22 (23:30) 2 0.2 0 0 1.8
31-10-2019 23 (14:10) 10.7 (23:10) 16.8 7.5 (17:00) 3.89 (14:30) 16 0 0 15.8 0.2
30-10-2019 22 (15:00) 7.6 (00:00) 14.8 7.5 (16:20) 4.17 (15:30) 0.2 0 0.2 0 0
29-10-2019 21.6 (16:50) 7.7 (00:00) 14.7 3.33 (17:20) 1.67 (14:50) 0 0 0 0 0
28-10-2019 16 (14:40) 9.1 (00:00) 12.6 4.17 (13:10) 2.5 (16:30) 0 0 0 0 0
27-10-2019 20.7 (14:30) 5.9 (00:00) 13.3 3.33 (11:40) 1.94 (02:00) 0 0 0 0 0
26-10-2019 22.7 (17:20) 4.8 (00:00) 13.8 3.06 (18:40) 1.94 (19:50) 0 0 0 0 0
25-10-2019 21.6 (16:00) 5.6 (00:00) 13.6 7.5 (17:50) 4.17 (17:50) 0.2 0 0 0.2 0
24-10-2019 18.5 (17:10) 7.6 (00:00) 13 8.33 (16:30) 5.83 (16:30) 0 0 0 0 0
23-10-2019 16.1 (16:00) 9.9 (00:00) 13 7.5 (10:00) 3.61 (05:50) 37.8 35.8 2 0 0
22-10-2019 13 (20:10) 7.8 (00:00) 10.4 26.11 (19:10) 6.67 (19:10) 89.4 0 6.2 12.2 71

Gráficas

Temp. máximas Temp. mínimas Temp. medias Precipitaciones Rachas de viento máximas Velocidades máximas media en intervalos de 10 minutos

Datos horarios

Fecha y hora oficial Temperatura (ºC) Velocidad del viento (km/h) Dirección del viento Racha (km/h) Dirección de racha Precipitación (mm) Presión (hPa) Tendencia (hPa) Humedad (%)
2019-11-20 23:00:00 0.5 0 Calma 5 Norte 0 -- -- 79
2019-11-20 22:00:00 0.8 3 Este 4 Este 0 -- -- 79
2019-11-20 21:00:00 1.5 0 Calma 6 Norte 0 -- -- 74
2019-11-20 20:00:00 2.6 0 Calma 5 Este 0 -- -- 71
2019-11-20 19:00:00 3.1 2 Nordeste 4 Este 0 -- -- 67
2019-11-20 18:00:00 4.9 4 Este 8 Este 0 -- -- 61
2019-11-20 17:00:00 7.1 3 Norte 8 Nordeste 0 -- -- 50
2019-11-20 16:00:00 9.4 3 Noroeste 8 Oeste 0 -- -- 37
2019-11-20 15:00:00 8.7 5 Oeste 10 Oeste 0 -- -- 42
2019-11-20 14:00:00 8.5 4 Oeste 9 Noroeste 0 -- -- 44
2019-11-20 13:00:00 6.2 4 Oeste 9 Oeste 0 -- -- 59
2019-11-20 12:00:00 3.3 3 Oeste 6 Oeste 0 -- -- 77
2019-11-20 11:00:00 -0.1 0 Calma 4 Oeste 0 -- -- 94
2019-11-20 10:00:00 -2 0 Calma 6 Sudeste 0 -- -- 92
2019-11-20 09:00:00 -3 0 Calma 3 Sudeste 0 -- -- 91
2019-11-20 08:00:00 -3.3 0 Calma 4 Nordeste 0 -- -- 89
2019-11-20 07:00:00 -3.4 0 Calma 5 Sudeste 0 -- -- 89
2019-11-20 06:00:00 -3.3 0 Calma 5 Sur 0 -- -- 88
2019-11-20 05:00:00 -2.9 2 Noroeste 5 Norte 0 -- -- 86
2019-11-20 04:00:00 -2.5 0 Calma 4 Este 0 -- -- 86
2019-11-20 03:00:00 -2 0 Calma 4 Sudeste 0 -- -- 86
2019-11-20 02:00:00 -1.8 3 Sudeste 6 Sudeste 0 -- -- 85
2019-11-20 01:00:00 -1 0 Calma 5 Este 0 -- -- 82
2019-11-20 00:00:00 -0.5 4 Sudeste 6 Sudeste 0 -- -- 83
2019-11-19 23:00:00 0.3 0 Calma 6 Este 0 -- -- 80
2019-11-19 22:00:00 0.7 0 Calma 5 Este 0 -- -- 77
2019-11-19 21:00:00 2.3 2 Norte 8 Norte 0 -- -- 67
2019-11-19 20:00:00 3.6 6 Sudeste 11 Sudeste 0 -- -- 64
2019-11-19 19:00:00 4.9 5 Sur 16 Sur 0 -- -- 58
2019-11-19 18:00:00 5.8 7 Sur 30 Sur 0 -- -- 58
2019-11-19 17:00:00 7.8 12 Sudoeste 33 Sudoeste 0 -- -- 54
2019-11-19 16:00:00 11.4 10 Sudoeste 21 Sur 0 -- -- 45
2019-11-19 15:00:00 11.9 10 Sudoeste 18 Sudoeste 0 -- -- 42
2019-11-19 14:00:00 11.1 5 Oeste 11 Oeste 0 -- -- 38
2019-11-19 13:00:00 9.1 6 Sudoeste 10 Oeste 0 -- -- 38
2019-11-19 12:00:00 6.7 4 Oeste 8 Oeste 0 -- -- 52
2019-11-19 11:00:00 3.1 4 Sudoeste 7 Oeste 0 -- -- 75
2019-11-19 10:00:00 -0.8 2 Oeste 5 Sudoeste 0 -- -- 91
2019-11-19 09:00:00 -2.9 2 Oeste 5 Oeste 0 -- -- 86
2019-11-19 08:00:00 -3.1 0 Calma 5 Sudeste 0 -- -- 85
2019-11-19 07:00:00 -3.1 0 Calma 5 Norte 0 -- -- 85
2019-11-19 06:00:00 -2.6 3 Norte 6 Norte 0 -- -- 84
2019-11-19 05:00:00 -2.2 0 Calma 2 Sudeste 0 -- -- 82
2019-11-19 04:00:00 -1.7 0 Calma 5 Sudeste 0 -- -- 80
2019-11-19 03:00:00 -1.5 0 Calma 5 Norte 0 -- -- 80
2019-11-19 02:00:00 -0.1 0 Calma 8 Nordeste 0 -- -- 74
2019-11-19 01:00:00 0.8 5 Este 9 Este 0 -- -- 68
2019-11-19 00:00:00 2.9 7 Este 12 Este 0 -- -- 63
2019-11-18 23:00:00 3.1 7 Este 11 Este 0 -- -- 59
2019-11-18 22:00:00 3.1 4 Nordeste 9 Este 0 -- -- 63
2019-11-18 21:00:00 4.3 2 Este 8 Nordeste 0 -- -- 72
2019-11-18 20:00:00 5.5 4 Este 8 Este 0 -- -- 71
2019-11-18 19:00:00 6.2 4 Este 9 Sudeste 0 -- -- 68
2019-11-18 18:00:00 7.6 5 Este 21 Sudoeste 0 -- -- 66
2019-11-18 17:00:00 8.9 8 Sudoeste 26 Sudoeste 0 -- -- 60
2019-11-18 16:00:00 11.3 14 Sudoeste 31 Sudoeste 0 -- -- 53
2019-11-18 15:00:00 11.2 17 Sudoeste 31 Sudoeste 0 -- -- 55
2019-11-18 14:00:00 12.1 16 Sudoeste 28 Sudoeste 0 -- -- 52
2019-11-18 13:00:00 11.7 9 Sudoeste 20 Sudoeste 0 -- -- 51
2019-11-18 12:00:00 10.9 5 Sudoeste 12 Sudoeste 0 -- -- 56
2019-11-18 11:00:00 7.5 3 Oeste 17 Sudeste 0 -- -- 74
2019-11-18 10:00:00 3.9 3 Sudeste 8 Sur 0 -- -- 98
2019-11-18 09:00:00 1.6 0 Calma 4 Nordeste 0 -- -- 93
2019-11-18 08:00:00 1.3 0 Calma 3 Este 0 -- -- 90
2019-11-18 07:00:00 1.9 0 Calma 5 Sudeste 0 -- -- 89
2019-11-18 06:00:00 2.8 3 Sudeste 7 Norte 0 -- -- 88
2019-11-18 05:00:00 3.2 5 Norte 8 Norte 0 -- -- 89
2019-11-18 04:00:00 3.4 2 Este 4 Nordeste 0 -- -- 88
2019-11-18 03:00:00 3.9 4 Este 7 Este 0 -- -- 87
2019-11-18 02:00:00 3.1 0 Calma 4 Este 0 -- -- 85
2019-11-18 01:00:00 3.7 0 Calma 6 Este 0 -- -- 84
2019-11-18 00:00:00 5 3 Este 6 Este 0 -- -- 80
2019-11-17 23:00:00 5.8 3 Este 9 Nordeste 0 -- -- 80
2019-11-17 22:00:00 6.3 3 Nordeste 6 Este 0 -- -- 76
2019-11-17 21:00:00 7 0 Calma 5 Noroeste 0 -- -- 73
2019-11-17 20:00:00 7.5 0 Calma 18 Sudoeste 0 -- -- 71
2019-11-17 19:00:00 7.9 8 Oeste 23 Sudoeste 0 -- -- 67
2019-11-17 18:00:00 8 3 Sudoeste 17 Sudoeste 0 -- -- 68
2019-11-17 17:00:00 8.2 5 Este 9 Nordeste 0 -- -- 65
2019-11-17 16:00:00 8.2 4 Este 8 Sudeste 0 -- -- 63
2019-11-17 15:00:00 9 2 Sur 9 Sudoeste 0 -- -- 63
2019-11-17 14:00:00 6.8 3 Sur 8 Oeste 0 -- -- 65
2019-11-17 13:00:00 5.1 4 Oeste 12 Sudoeste 0 -- -- 75
2019-11-17 12:00:00 1.7 5 Sur 13 Sudeste 0 -- -- 99
2019-11-17 11:00:00 0.3 0 Calma 5 Oeste 0 -- -- 96
2019-11-17 10:00:00 -0.4 4 Noroeste 8 Noroeste 0 -- -- 95
2019-11-17 09:00:00 -1 2 Sudeste 6 Sudeste 0 -- -- 94
2019-11-17 08:00:00 -1.4 0 Calma 4 Sudoeste 0 -- -- 93
2019-11-17 07:00:00 -1.9 3 Sudeste 9 Norte 0 -- -- 93
2019-11-17 06:00:00 -1.7 2 Sudoeste 10 Este 0 -- -- 90
2019-11-17 05:00:00 -1.4 3 Sudeste 10 Sudeste 0 -- -- 91
2019-11-17 04:00:00 -1.2 4 Nordeste 8 Este 0 -- -- 90
2019-11-17 03:00:00 -1.3 0 Calma 5 Sudeste 0 -- -- 88
2019-11-17 02:00:00 -0.8 2 Este 5 Norte 0 -- -- 87
2019-11-17 01:00:00 -0.3 0 Calma 7 Sudeste 0 -- -- 86
2019-11-17 00:00:00 0.2 2 Sur 5 Sudeste 0 -- -- 85
2019-11-16 23:00:00 1.4 2 Este 7 Este 0 -- -- 79
2019-11-16 22:00:00 2.7 3 Norte 14 Noroeste 0 -- -- 72
2019-11-16 21:00:00 4.3 8 Noroeste 20 Oeste 0 -- -- 65
2019-11-16 20:00:00 3.3 0 Calma 6 Sur 0 -- -- 72
2019-11-16 19:00:00 4.5 2 Noroeste 10 Oeste 0 -- -- 65
2019-11-16 18:00:00 5.3 7 Noroeste 18 Oeste 0 -- -- 60
2019-11-16 17:00:00 6.7 11 Noroeste 21 Oeste 0 -- -- 53
2019-11-16 16:00:00 8 13 Oeste 21 Noroeste 0 -- -- 49
2019-11-16 15:00:00 8.6 3 Sudoeste 10 Sudeste 0 -- -- 50
2019-11-16 14:00:00 7.8 4 Sur 8 Sur 0 -- -- 54
2019-11-16 13:00:00 7.3 5 Oeste 10 Noroeste 0 -- -- 53
2019-11-16 12:00:00 5.8 3 Noroeste 12 Noroeste 0 -- -- 58
2019-11-16 11:00:00 3 5 Sudeste 14 Sudeste 0 -- -- 80
2019-11-16 10:00:00 1.1 0 Calma 8 Sudeste 0 -- -- 88
2019-11-16 09:00:00 0.7 3 Oeste 8 Este 0 -- -- 91
2019-11-16 08:00:00 0.7 2 Sudeste 6 Noroeste 0 -- -- 92
2019-11-16 07:00:00 0.8 0 Calma 11 Noroeste 0 -- -- 93
2019-11-16 06:00:00 0.9 0 Calma 10 Sudeste 0 -- -- 94
2019-11-16 05:00:00 1.1 4 Sur 9 Sudeste 0 -- -- 94
2019-11-16 04:00:00 1 4 Este 9 Este 0 -- -- 94
2019-11-16 03:00:00 1.1 4 Sudeste 7 Sudeste 0.2 -- -- 94
2019-11-16 02:00:00 0.9 0 Calma 4 Oeste 0 -- -- 93
2019-11-16 01:00:00 0.6 0 Calma 4 Sur 0 -- -- 91
2019-11-16 00:00:00 0.8 0 Calma 6 Este 0 -- -- 89
2019-11-15 23:00:00 1.9 3 Nordeste 8 Este 0 -- -- 88
2019-11-15 22:00:00 2.3 5 Este 7 Este 0 -- -- 91
2019-11-15 21:00:00 2.2 3 Este 7 Este 0 -- -- 87
2019-11-15 20:00:00 3.5 0 Calma 4 Norte 0 -- -- 88
2019-11-15 19:00:00 3.5 2 Nordeste 5 Sudeste 0 -- -- 86
2019-11-15 18:00:00 4.1 3 Sudeste 4 Sudoeste 0.4 -- -- 84
2019-11-15 17:00:00 4.6 2 Sur 8 Sur 0.2 -- -- 80
2019-11-15 16:00:00 4.8 3 Sur 15 Sudoeste 0 -- -- 75
2019-11-15 15:00:00 5 6 Sudoeste 24 Sudoeste 0 -- -- 71
2019-11-15 14:00:00 5.7 9 Sudoeste 20 Sudoeste 0 -- -- 66
2019-11-15 13:00:00 6.2 10 Oeste 19 Oeste 0 -- -- 64
2019-11-15 12:00:00 6 2 Sur 8 Sudoeste 0 -- -- 67
2019-11-15 11:00:00 3.1 2 Sur 5 Oeste 0 -- -- 97
2019-11-15 10:00:00 0.2 2 Sudoeste 6 Sudoeste 0.2 -- -- 94
2019-11-15 09:00:00 -1.5 0 Calma 6 Sudeste 0 -- -- 91
2019-11-15 08:00:00 -1.6 3 Sudeste 5 Este 0 -- -- 90
2019-11-15 07:00:00 -1.5 0 Calma 5 Este 0 -- -- 89
2019-11-15 06:00:00 -0.9 0 Calma 9 Norte 0 -- -- 88
2019-11-15 05:00:00 -0.9 0 Calma 3 Norte 0 -- -- 88
2019-11-15 04:00:00 -0.4 0 Calma 2 Este 0 -- -- 88
2019-11-15 03:00:00 0 0 Calma 5 Norte 0 -- -- 85
2019-11-15 02:00:00 0.6 3 Norte 10 Sudeste 0 -- -- 83
2019-11-15 01:00:00 0.1 5 Este 9 Sudeste 0 -- -- 86
2019-11-15 00:00:00 0.3 0 Calma 8 Este 0 -- -- 82
2019-11-14 23:00:00 1 0 Calma 6 Este 0 -- -- 80
2019-11-14 22:00:00 1.8 5 Nordeste 10 Este 0 -- -- 77
2019-11-14 21:00:00 2.9 5 Este 10 Este 0 -- -- 70
2019-11-14 20:00:00 3.9 3 Este 9 Norte 0 -- -- 67
2019-11-14 19:00:00 4.1 4 Norte 6 Noroeste 0 -- -- 66
2019-11-14 18:00:00 5.2 0 Calma 10 Oeste 0 -- -- 71
2019-11-14 17:00:00 7.7 9 Oeste 25 Oeste 0 -- -- 60
2019-11-14 16:00:00 8 6 Sudoeste 16 Sur 0 -- -- 65
2019-11-14 15:00:00 9.3 4 Sudoeste 11 Sudoeste 0 -- -- 65
2019-11-14 14:00:00 7.3 3 Sudoeste 10 Nordeste 0 -- -- 79
2019-11-14 13:00:00 6.6 5 Nordeste 13 Nordeste 0 -- -- 89
2019-11-14 12:00:00 6.3 0 Calma 14 Sudeste 0 -- -- 94
2019-11-14 11:00:00 5.6 7 Oeste 17 Oeste 1 -- -- 92
2019-11-14 10:00:00 5.3 4 Sudeste 9 Sudeste 1.4 -- -- 91
2019-11-14 09:00:00 5.1 3 Noroeste 11 Norte 0.2 -- -- 90
2019-11-14 08:00:00 4.9 4 Sudeste 8 Sudeste 1.4 -- -- 90
2019-11-14 07:00:00 4.7 0 Calma 8 Oeste 0.8 -- -- 89
2019-11-14 06:00:00 4.7 8 Noroeste 17 Oeste 0.6 -- -- 88
2019-11-14 05:00:00 4.6 3 Oeste 14 Norte 0 -- -- 87
2019-11-14 04:00:00 4.8 6 Oeste 14 Oeste 0.4 -- -- 84
2019-11-14 03:00:00 6 3 Nordeste 12 Sur 0 -- -- 77
2019-11-14 02:00:00 5.1 3 Norte 9 Noroeste 0 -- -- 82
2019-11-14 01:00:00 4.3 3 Este 7 Este 0 -- -- 82
2019-11-14 00:00:00 4.7 4 Sur 10 Sudeste 0 -- -- 78
2019-11-13 23:00:00 5.5 3 Este 12 Este 0 -- -- 74
2019-11-13 22:00:00 5.8 3 Este 9 Sudeste 0 -- -- 74
2019-11-13 21:00:00 7.4 4 Sur 11 Sur 0 -- -- 71
2019-11-13 20:00:00 7.8 3 Sudeste 17 Sudeste 0 -- -- 67
2019-11-13 19:00:00 9.3 4 Sudeste 14 Sudeste 0 -- -- 64
2019-11-13 18:00:00 10.4 7 Este 26 Sur 0 -- -- 62
2019-11-13 17:00:00 11.3 13 Sudoeste 28 Sudoeste 0 -- -- 60
2019-11-13 16:00:00 13.2 12 Sur 31 Sudoeste 0 -- -- 53
2019-11-13 15:00:00 15.1 5 Sudoeste 17 Oeste 0 -- -- 42
2019-11-13 14:00:00 13.9 3 Sur 9 Oeste 0 -- -- 42
2019-11-13 13:00:00 10.8 5 Oeste 10 Oeste 0 -- -- 56
2019-11-13 12:00:00 7.3 3 Sur 12 Norte 0 -- -- 74
2019-11-13 11:00:00 5.5 6 Norte 10 Norte 0 -- -- 81
2019-11-13 10:00:00 4.4 3 Noroeste 8 Oeste 0 -- -- 86
2019-11-13 09:00:00 3.3 2 Noroeste 8 Norte 0 -- -- 87
2019-11-13 08:00:00 2.8 0 Calma 5 Sudeste 0 -- -- 87
2019-11-13 07:00:00 2.5 2 Sudeste 6 Norte 0 -- -- 86
2019-11-13 06:00:00 2.7 0 Calma 4 Sudeste 0 -- -- 86
2019-11-13 05:00:00 2.4 2 Sudeste 4 Norte 0 -- -- 87
2019-11-13 04:00:00 2.4 0 Calma 7 Sudeste 0 -- -- 86
2019-11-13 03:00:00 2.2 0 Calma 6 Este 0 -- -- 84
2019-11-13 02:00:00 2.6 0 Calma 6 Norte 0 -- -- 81
2019-11-13 01:00:00 3.7 0 Calma 3 Norte 0 -- -- 77
2019-11-13 00:00:00 4.9 0 Calma 4 Norte 0 -- -- 74
2019-11-12 23:00:00 5.8 0 Calma 6 Sudoeste 0 -- -- 71
2019-11-12 22:00:00 6 0 Calma 7 Este 0 -- -- 67
2019-11-12 21:00:00 7 5 Este 9 Noroeste 0 -- -- 62
2019-11-12 20:00:00 9.2 3 Noroeste 15 Noroeste 0 -- -- 54
2019-11-12 19:00:00 10.1 7 Nordeste 17 Oeste 0 -- -- 50
2019-11-12 18:00:00 10.4 5 Sudeste 15 Este 0 -- -- 48
2019-11-12 17:00:00 13.4 2 Noroeste 22 Sudoeste 0 -- -- 41
2019-11-12 16:00:00 15.8 15 Oeste 29 Oeste 0 -- -- 34
2019-11-12 15:00:00 16.1 7 Noroeste 24 Oeste 0 -- -- 30
2019-11-12 14:00:00 14.3 3 Sur 9 Sudoeste 0 -- -- 34
2019-11-12 13:00:00 12.2 4 Oeste 8 Sudoeste 0 -- -- 44
2019-11-12 12:00:00 9.2 5 Noroeste 10 Noroeste 0 -- -- 56
2019-11-12 11:00:00 6.5 3 Oeste 6 Oeste 0 -- -- 71
2019-11-12 10:00:00 2.8 3 Sudoeste 8 Oeste 0 -- -- 97
2019-11-12 09:00:00 -0.8 3 Sudeste 7 Sudeste 0 -- -- 90
2019-11-12 08:00:00 -0.9 6 Norte 8 Norte 0 -- -- 88
2019-11-12 07:00:00 -0.3 0 Calma 6 Nordeste 0 -- -- 88
2019-11-12 06:00:00 -0.3 0 Calma 9 Sudeste 0 -- -- 88
2019-11-12 05:00:00 -0.3 2 Norte 4 Nordeste 0 -- -- 85
2019-11-12 04:00:00 0.5 0 Calma 4 Sudeste 0 -- -- 84
2019-11-12 03:00:00 1 2 Sudeste 5 Este 0 -- -- 84
2019-11-12 02:00:00 1.6 0 Calma 4 Norte 0 -- -- 81
2019-11-12 01:00:00 2.2 0 Calma 6 Este 0 -- -- 79
2019-11-12 00:00:00 2.8 0 Calma 8 Sudeste 0 -- -- 75
2019-11-11 23:00:00 3.7 2 Nordeste 7 Norte 0 -- -- 73
2019-11-11 22:00:00 4.3 6 Sudeste 9 Sudeste 0 -- -- 69
2019-11-11 21:00:00 5.5 5 Norte 8 Este 0 -- -- 65
2019-11-11 20:00:00 6.1 4 Este 6 Este 0 -- -- 61
2019-11-11 19:00:00 7.2 3 Este 7 Sudeste 0 -- -- 55
2019-11-11 18:00:00 8.4 5 Sur 12 Sur 0 -- -- 51
2019-11-11 17:00:00 9.8 5 Sur 26 Sudoeste 0 -- -- 48
2019-11-11 16:00:00 10.6 14 Sudoeste 27 Sudoeste 0 -- -- 43
2019-11-11 15:00:00 12.9 13 Sudoeste 24 Sudoeste 0 -- -- 35
2019-11-11 14:00:00 12.2 3 Sur 9 Oeste 0 -- -- 34
2019-11-11 13:00:00 11.1 4 Oeste 8 Sudoeste 0 -- -- 41
2019-11-11 12:00:00 8.6 3 Oeste 8 Oeste 0 -- -- 49
2019-11-11 11:00:00 5.1 3 Sudoeste 6 Sudoeste 0 -- -- 68
2019-11-11 10:00:00 2.2 2 Oeste 4 Sudoeste 0 -- -- 77
2019-11-11 09:00:00 0.8 0 Calma 6 Noroeste 0 -- -- 81
2019-11-11 08:00:00 0.3 0 Calma 4 Este 0 -- -- 79
2019-11-11 07:00:00 0.3 2 Nordeste 8 Sudeste 0 -- -- 76
2019-11-11 06:00:00 -0.1 3 Sudeste 7 Sudeste 0 -- -- 79
2019-11-11 05:00:00 0.4 0 Calma 10 Norte 0 -- -- 73
2019-11-11 04:00:00 1.4 3 Noroeste 14 Sudeste 0 -- -- 65
2019-11-11 03:00:00 1.2 0 Calma 9 Norte 0 -- -- 68
2019-11-11 02:00:00 2.2 3 Noroeste 8 Nordeste 0 -- -- 63
2019-11-11 01:00:00 3.4 3 Nordeste 12 Este 0 -- -- 58
2019-11-11 00:00:00 3.4 3 Nordeste 11 Este 0 -- -- 61
2019-11-10 23:00:00 4 6 Este 9 Este 0 -- -- 57
2019-11-10 22:00:00 4.6 4 Este 12 Este 0 -- -- 55
2019-11-10 21:00:00 5.1 8 Este 10 Este 0 -- -- 55
2019-11-10 20:00:00 5.4 3 Este 9 Este 0 -- -- 57
2019-11-10 19:00:00 6.4 3 Nordeste 10 Este 0 -- -- 58
2019-11-10 18:00:00 8.1 3 Sudeste 8 Sur 0 -- -- 52
2019-11-10 17:00:00 12 0 Calma 14 Oeste 0 -- -- 42
2019-11-10 16:00:00 13.4 4 Sudoeste 15 Oeste 0 -- -- 34
2019-11-10 15:00:00 14.5 4 Norte 10 Oeste 0 -- -- 28
2019-11-10 14:00:00 14.2 4 Oeste 13 Sudoeste 0 -- -- 29
2019-11-10 13:00:00 14 6 Sudoeste 12 Oeste 0 -- -- 36
2019-11-10 12:00:00 12.1 2 Oeste 9 Sur 0 -- -- 45
2019-11-10 11:00:00 9.5 4 Sur 9 Noroeste 0 -- -- 67
2019-11-10 10:00:00 5.9 0 Calma 7 Este 0 -- -- 84
2019-11-10 09:00:00 4 2 Oeste 12 Sudeste 0 -- -- 81
2019-11-10 08:00:00 3.7 3 Este 14 Sudeste 0 -- -- 85
2019-11-10 07:00:00 3.5 7 Sudeste 10 Sudeste 0 -- -- 90
2019-11-10 06:00:00 3.9 3 Nordeste 13 Este 0 -- -- 85
2019-11-10 05:00:00 4.4 5 Sudeste 10 Sudeste 0 -- -- 88
2019-11-10 04:00:00 5.3 0 Calma 14 Sudeste 0 -- -- 84
2019-11-10 03:00:00 6.2 6 Sudeste 12 Sudeste 0 -- -- 83
2019-11-10 02:00:00 6.6 3 Nordeste 18 Este 0 -- -- 82
2019-11-10 01:00:00 7.5 4 Sudeste 11 Sudeste 0.6 -- -- 77
2019-11-10 00:00:00 8 0 Calma 12 Norte 0 -- -- 67
2019-11-09 23:00:00 7.7 0 Calma 18 Nordeste 0 -- -- 67
2019-11-09 22:00:00 8.3 2 Norte 16 Noroeste 0 -- -- 67
2019-11-09 21:00:00 9.1 5 Norte 21 Noroeste 0 -- -- 62
2019-11-09 20:00:00 9.5 9 Noroeste 17 Norte 0 -- -- 59
2019-11-09 19:00:00 9.7 11 Noroeste 20 Oeste 0 -- -- 58
2019-11-09 18:00:00 10.5 5 Noroeste 14 Noroeste 0 -- -- 53
2019-11-09 17:00:00 11.4 3 Noroeste 14 Sudoeste 0 -- -- 53
2019-11-09 16:00:00 11.8 3 Sudeste 7 Sur 0 -- -- 50
2019-11-09 15:00:00 13 5 Sudoeste 12 Oeste 0 -- -- 42
2019-11-09 14:00:00 13 5 Sudoeste 13 Sudoeste 0 -- -- 43
2019-11-09 13:00:00 11.8 3 Oeste 11 Oeste 0 -- -- 47
2019-11-09 12:00:00 9.8 5 Oeste 9 Noroeste 0 -- -- 55
2019-11-09 11:00:00 7.5 3 Noroeste 7 Sudoeste 0 -- -- 63
2019-11-09 10:00:00 3.8 0 Calma 4 Oeste 0 -- -- 89
2019-11-09 09:00:00 0.2 0 Calma 4 Nordeste 0 -- -- 89
2019-11-09 08:00:00 -0.4 0 Calma 6 Este 0 -- -- 87
2019-11-09 07:00:00 -0.3 3 Este 6 Este 0 -- -- 87
2019-11-09 06:00:00 0.2 2 Sudeste 9 Norte 0 -- -- 84
2019-11-09 05:00:00 1 3 Este 9 Este 0 -- -- 81
2019-11-09 04:00:00 1.8 5 Este 12 Sudeste 0 -- -- 78
2019-11-09 03:00:00 3.2 5 Sudeste 12 Sudeste 0 -- -- 73
2019-11-09 02:00:00 2.7 4 Este 10 Sudeste 0 -- -- 75
2019-11-09 01:00:00 3.7 5 Este 15 Sudeste 0 -- -- 71
2019-11-09 00:00:00 3.3 5 Sudeste 16 Noroeste 0 -- -- 72
2019-11-08 23:00:00 4.2 3 Oeste 15 Oeste 0 -- -- 66
2019-11-08 22:00:00 5 8 Oeste 22 Noroeste 0 -- -- 63
2019-11-08 21:00:00 5.1 3 Sudoeste 16 Sudoeste 0 -- -- 62
2019-11-08 20:00:00 6.1 7 Oeste 27 Oeste 0 -- -- 59
2019-11-08 19:00:00 6.3 5 Oeste 24 Oeste 0 -- -- 58
2019-11-08 18:00:00 7.2 8 Sudoeste 21 Sudoeste 0 -- -- 56
2019-11-08 17:00:00 9.1 6 Noroeste 41 Oeste 0 -- -- 51
2019-11-08 16:00:00 8.8 21 Noroeste 44 Noroeste 0 -- -- 52
2019-11-08 15:00:00 9.9 10 Oeste 46 Oeste 0 -- -- 48
2019-11-08 14:00:00 13.1 22 Oeste 40 Oeste 0 -- -- 44
2019-11-08 13:00:00 10.4 3 Norte 20 Sudoeste 0 -- -- 49
2019-11-08 12:00:00 9.8 6 Noroeste 16 Noroeste 0 -- -- 49
2019-11-08 11:00:00 7.9 4 Oeste 10 Sur 0 -- -- 59
2019-11-08 10:00:00 5 4 Noroeste 11 Oeste 0 -- -- 67
2019-11-08 09:00:00 2.9 3 Sudeste 6 Oeste 0 -- -- 81
2019-11-08 08:00:00 2.2 2 Norte 13 Norte 0 -- -- 80
2019-11-08 07:00:00 2.5 5 Este 8 Este 0 -- -- 72
2019-11-08 06:00:00 2.8 4 Sudeste 10 Este 0 -- -- 69
2019-11-08 05:00:00 2.9 2 Sudeste 14 Sudeste 0 -- -- 70
2019-11-08 04:00:00 4.2 2 Este 15 Este 0 -- -- 63
2019-11-08 03:00:00 4.1 6 Sudeste 14 Sudeste 0 -- -- 68
2019-11-08 02:00:00 4.8 0 Calma 12 Oeste 0 -- -- 71
2019-11-08 01:00:00 5.6 8 Noroeste 17 Noroeste 0 -- -- 65
2019-11-08 00:00:00 5.8 2 Sudeste 15 Norte 0 -- -- 68
2019-11-07 23:00:00 6.9 8 Noroeste 17 Noroeste 0 -- -- 58
2019-11-07 22:00:00 6 0 Calma 10 Este 0 -- -- 62
2019-11-07 21:00:00 5.5 3 Nordeste 16 Norte 0 -- -- 65
2019-11-07 20:00:00 6.3 4 Nordeste 10 Norte 0 -- -- 66
2019-11-07 19:00:00 7.4 3 Sur 10 Sudeste 0 -- -- 64
2019-11-07 18:00:00 8.4 7 Sudeste 15 Sudeste 0 -- -- 67
2019-11-07 17:00:00 11.1 4 Oeste 11 Oeste 0 -- -- 57
2019-11-07 16:00:00 11.9 2 Nordeste 10 Sudoeste 0 -- -- 69
2019-11-07 15:00:00 10 4 Norte 14 Noroeste 0.2 -- -- 81
2019-11-07 14:00:00 9.6 6 Sudeste 13 Oeste 1.4 -- -- 82
2019-11-07 13:00:00 10.3 2 Norte 18 Sur 0 -- -- 76
2019-11-07 12:00:00 8.1 2 Oeste 7 Noroeste 0 -- -- 86
2019-11-07 11:00:00 7.8 2 Oeste 7 Oeste 0.4 -- -- 86
2019-11-07 10:00:00 6.8 0 Calma 6 Oeste 0 -- -- 88
2019-11-07 09:00:00 6 0 Calma 6 Sudeste 0 -- -- 89
2019-11-07 08:00:00 5.2 2 Noroeste 4 Noroeste 0 -- -- 89
2019-11-07 07:00:00 4.9 0 Calma 2 Este 0 -- -- 90
2019-11-07 06:00:00 4.4 0 Calma 4 Nordeste 0 -- -- 88
2019-11-07 05:00:00 4.8 0 Calma 6 Oeste 0 -- -- 87
2019-11-07 04:00:00 5.3 0 Calma 4 Sudeste 0 -- -- 87
2019-11-07 03:00:00 4.9 2 Sudeste 6 Sudeste 0 -- -- 88
2019-11-07 02:00:00 4.7 4 Norte 6 Norte 0 -- -- 87
2019-11-07 01:00:00 4.5 0 Calma 5 Este 0 -- -- 84
2019-11-07 00:00:00 5.2 0 Calma 6 Nordeste 0 -- -- 80
2019-11-06 23:00:00 6.2 3 Norte 8 Norte 0 -- -- 77
2019-11-06 22:00:00 6.8 2 Este 7 Norte 0 -- -- 76
2019-11-06 21:00:00 7.7 3 Norte 8 Sudeste 0 -- -- 72
2019-11-06 20:00:00 8.9 3 Sudeste 9 Sudeste 0 -- -- 67
2019-11-06 19:00:00 10 3 Nordeste 6 Este 0 -- -- 63
2019-11-06 18:00:00 11.1 0 Calma 8 Este 0 -- -- 60
2019-11-06 17:00:00 14.8 4 Sur 8 Sur 0 -- -- 49
2019-11-06 16:00:00 15.4 3 Sur 9 Sur 0 -- -- 45
2019-11-06 15:00:00 16.2 7 Sur 14 Sur 0 -- -- 39
2019-11-06 14:00:00 15.9 4 Este 11 Sudoeste 0 -- -- 41
2019-11-06 13:00:00 14.7 4 Sur 10 Noroeste 0 -- -- 46
2019-11-06 12:00:00 12.2 4 Noroeste 7 Noroeste 0 -- -- 57
2019-11-06 11:00:00 9 4 Oeste 12 Sur 0 -- -- 67
2019-11-06 10:00:00 5 0 Calma 5 Este 0 -- -- 97
2019-11-06 09:00:00 2.8 3 Oeste 6 Norte 0 -- -- 91
2019-11-06 08:00:00 2.1 0 Calma 11 Norte 0 -- -- 89
2019-11-06 07:00:00 2.3 2 Sudeste 6 Sudeste 0 -- -- 88
2019-11-06 06:00:00 2.4 3 Sudeste 6 Sudeste 0 -- -- 87
2019-11-06 05:00:00 2.8 0 Calma 6 Nordeste 0 -- -- 85
2019-11-06 04:00:00 3.1 2 Sudeste 10 Oeste 0 -- -- 83
2019-11-06 03:00:00 4.5 4 Nordeste 13 Nordeste 0 -- -- 77
2019-11-06 02:00:00 5.1 2 Este 8 Noroeste 0 -- -- 74
2019-11-06 01:00:00 5.9 5 Este 12 Norte 0 -- -- 69
2019-11-06 00:00:00 6.9 7 Norte 14 Norte 0 -- -- 62
2019-11-05 23:00:00 7.6 7 Noroeste 18 Noroeste 0 -- -- 59
2019-11-05 22:00:00 8.4 10 Noroeste 35 Noroeste 0 -- -- 56
2019-11-05 21:00:00 8.8 6 Noroeste 23 Oeste 0 -- -- 56
2019-11-05 20:00:00 9.3 5 Oeste 27 Oeste 0 -- -- 57
2019-11-05 19:00:00 9.2 4 Sudeste 29 Sudoeste 0 -- -- 58
2019-11-05 18:00:00 10.4 11 Oeste 25 Este 0 -- -- 53
2019-11-05 17:00:00 12.3 6 Noroeste 35 Oeste 0 -- -- 50
2019-11-05 16:00:00 11.6 8 Norte 31 Noroeste 0 -- -- 57
2019-11-05 15:00:00 11.5 14 Noroeste 26 Oeste 0 -- -- 54
2019-11-05 14:00:00 10.7 3 Sur 26 Noroeste 0 -- -- 65
2019-11-05 13:00:00 11.3 16 Noroeste 31 Oeste 0 -- -- 57
2019-11-05 12:00:00 14.7 16 Oeste 28 Oeste 0 -- -- 42
2019-11-05 11:00:00 13.7 5 Norte 27 Oeste 0 -- -- 46
2019-11-05 10:00:00 11.4 19 Oeste 32 Oeste 0 -- -- 53
2019-11-05 09:00:00 8.8 8 Oeste 24 Oeste 0 -- -- 58
2019-11-05 08:00:00 8.1 4 Nordeste 19 Sudoeste 0 -- -- 63
2019-11-05 07:00:00 9 6 Noroeste 22 Oeste 0 -- -- 61
2019-11-05 06:00:00 8.9 3 Sudeste 17 Norte 0 -- -- 59
2019-11-05 05:00:00 8.1 3 Este 10 Oeste 0 -- -- 71
2019-11-05 04:00:00 9.6 5 Oeste 17 Oeste 0 -- -- 74
2019-11-05 03:00:00 10 3 Sudeste 9 Este 0 -- -- 82
2019-11-05 02:00:00 11.1 5 Este 19 Sudoeste 0 -- -- 82
2019-11-05 01:00:00 11.6 3 Este 14 Sudoeste 0 -- -- 79
2019-11-05 00:00:00 11.8 5 Norte 26 Sudoeste 0.2 -- -- 81
2019-11-04 23:00:00 12 3 Este 19 Sur 0.4 -- -- 85
2019-11-04 22:00:00 12.2 11 Sudeste 19 Sudeste 0.4 -- -- 81
2019-11-04 21:00:00 13 0 Calma 11 Norte 2.2 -- -- 80
2019-11-04 20:00:00 14 3 Nordeste 17 Noroeste 0.2 -- -- 75
2019-11-04 19:00:00 15.5 10 Norte 17 Norte 0 -- -- 59
2019-11-04 18:00:00 16.4 9 Norte 36 Oeste 0 -- -- 53
2019-11-04 17:00:00 17.4 17 Oeste 37 Oeste 0 -- -- 47
2019-11-04 16:00:00 18.2 16 Oeste 39 Oeste 0 -- -- 45
2019-11-04 15:00:00 19.9 19 Oeste 38 Oeste 0 -- -- 44
2019-11-04 14:00:00 17.6 16 Noroeste 36 Oeste 0 -- -- 47
2019-11-04 13:00:00 15.6 5 Oeste 21 Oeste 0 -- -- 57
2019-11-04 12:00:00 12.1 3 Noroeste 9 Sudeste 0 -- -- 69
2019-11-04 11:00:00 11.8 3 Noroeste 9 Oeste 0 -- -- 66
2019-11-04 10:00:00 11 4 Noroeste 8 Oeste 0 -- -- 67
2019-11-04 09:00:00 9.1 0 Calma 6 Oeste 0 -- -- 76
2019-11-04 08:00:00 8.5 2 Sur 5 Noroeste 0 -- -- 79
2019-11-04 07:00:00 8.4 0 Calma 6 Este 0 -- -- 78
2019-11-04 06:00:00 8.4 2 Sur 7 Oeste 0 -- -- 79
2019-11-04 05:00:00 8.5 2 Norte 6 Oeste 0 -- -- 73
2019-11-04 04:00:00 8.3 0 Calma 4 Sudeste 0 -- -- 76
2019-11-04 03:00:00 8.1 0 Calma 6 Sudeste 0 -- -- 75
2019-11-04 02:00:00 8 0 Calma 7 Norte 0 -- -- 75
2019-11-04 01:00:00 8 0 Calma 5 Noroeste 0 -- -- 71
2019-11-04 00:00:00 8.2 3 Nordeste 10 Este 0 -- -- 68
2019-11-03 23:00:00 8.6 5 Norte 12 Este 0 -- -- 63
2019-11-03 22:00:00 10 6 Nordeste 11 Nordeste 0 -- -- 54
2019-11-03 21:00:00 10.9 3 Nordeste 24 Nordeste 0 -- -- 48
2019-11-03 20:00:00 11.2 3 Oeste 23 Noroeste 0 -- -- 47
2019-11-03 19:00:00 11.8 4 Sudoeste 36 Oeste 0 -- -- 48
2019-11-03 18:00:00 12.6 13 Oeste 64 Oeste 0 -- -- 46
2019-11-03 17:00:00 14.8 31 Oeste 58 Oeste 0 -- -- 43
2019-11-03 16:00:00 16.9 31 Oeste 47 Noroeste 0 -- -- 37
2019-11-03 15:00:00 16.9 29 Oeste 48 Noroeste 0 -- -- 39
2019-11-03 14:00:00 16.6 27 Oeste 50 Oeste 0 -- -- 40
2019-11-03 13:00:00 17.2 25 Oeste 44 Oeste 0 -- -- 44
2019-11-03 12:00:00 15.9 10 Oeste 37 Noroeste 0 -- -- 42
2019-11-03 11:00:00 13.6 17 Noroeste 48 Oeste 0 -- -- 50
2019-11-03 10:00:00 12.3 8 Noroeste 54 Noroeste 0 -- -- 56
2019-11-03 09:00:00 12.8 32 Oeste 55 Oeste 0.2 -- -- 65
2019-11-03 08:00:00 12.9 7 Sudoeste 49 Noroeste 0 -- -- 73
2019-11-03 07:00:00 13.7 22 Oeste 45 Oeste 0 -- -- 62
2019-11-03 06:00:00 13.5 9 Noroeste 24 Norte 0 -- -- 62
2019-11-03 05:00:00 13.4 9 Oeste 23 Norte 0.2 -- -- 64
2019-11-03 04:00:00 13.1 8 Oeste 20 Noroeste 0 -- -- 70
2019-11-03 03:00:00 12.9 3 Noroeste 16 Sudoeste 0 -- -- 78
2019-11-03 02:00:00 13.2 5 Este 12 Este 0 -- -- 86
2019-11-03 01:00:00 13.4 6 Sudeste 32 Oeste 1 -- -- 85
2019-11-03 00:00:00 14 12 Sur 23 Sur 1.2 -- -- 80
2019-11-02 23:00:00 13.9 4 Sudeste 13 Norte 0 -- -- 77
2019-11-02 22:00:00 15.5 5 Este 12 Sudoeste 0 -- -- 69
2019-11-02 21:00:00 14.8 5 Sur 10 Sudeste 0 -- -- 73
2019-11-02 20:00:00 15.1 2 Nordeste 8 Noroeste 0 -- -- 70
2019-11-02 19:00:00 15.1 5 Noroeste 9 Noroeste 0 -- -- 70
2019-11-02 18:00:00 16.3 5 Oeste 16 Sudoeste 0 -- -- 66
2019-11-02 17:00:00 17.7 5 Oeste 22 Oeste 0 -- -- 65
2019-11-02 16:00:00 18.3 3 Noroeste 12 Noroeste 0 -- -- 63
2019-11-02 15:00:00 17.4 2 Este 9 Oeste 0 -- -- 71
2019-11-02 14:00:00 17.4 5 Oeste 11 Noroeste 0 -- -- 73
2019-11-02 13:00:00 15.3 2 Oeste 8 Noroeste 0 -- -- 82
2019-11-02 12:00:00 14.7 0 Calma 8 Oeste 0 -- -- 86
2019-11-02 11:00:00 14.4 3 Noroeste 8 Oeste 0 -- -- 90
2019-11-02 10:00:00 13.3 3 Oeste 9 Noroeste 0 -- -- 99
2019-11-02 09:00:00 12.4 2 Sur 4 Sudoeste 0 -- -- 98
2019-11-02 08:00:00 11.9 0 Calma 6 Norte 0 -- -- 97
2019-11-02 07:00:00 11.8 0 Calma 5 Nordeste 0 -- -- 96
2019-11-02 06:00:00 11.9 0 Calma 3 Oeste 0 -- -- 96
2019-11-02 05:00:00 11.9 0 Calma 6 Sur 0 -- -- 95
2019-11-02 04:00:00 11.7 2 Nordeste 5 Este 0 -- -- 92
2019-11-02 03:00:00 12.3 0 Calma 5 Norte 0 -- -- 90
2019-11-02 02:00:00 12.8 3 Sudeste 6 Sudeste 0 -- -- 91
2019-11-02 01:00:00 12.8 3 Norte 19 Este 0 -- -- 90
2019-11-02 00:00:00 12.7 5 Sudeste 15 Este 0.2 -- -- 90
2019-11-01 23:00:00 12.9 0 Calma 14 Sudeste 0.8 -- -- 89
2019-11-01 22:00:00 13 5 Oeste 13 Noroeste 0.6 -- -- 87
2019-11-01 21:00:00 13.4 0 Calma 6 Norte 0.2 -- -- 83
2019-11-01 20:00:00 14 0 Calma 4 Este 0 -- -- 77
2019-11-01 19:00:00 14.2 2 Este 5 Sudeste 0 -- -- 73
2019-11-01 18:00:00 14.8 4 Sudeste 6 Sudeste 0 -- -- 67
2019-11-01 17:00:00 16.6 3 Noroeste 8 Oeste 0 -- -- 58
2019-11-01 16:00:00 17.5 4 Sudoeste 9 Noroeste 0 -- -- 56
2019-11-01 15:00:00 15.8 3 Noroeste 7 Sudoeste 0 -- -- 56
2019-11-01 14:00:00 15.1 2 Oeste 7 Oeste 0 -- -- 62
2019-11-01 13:00:00 14.1 3 Sudoeste 6 Oeste 0 -- -- 75
2019-11-01 12:00:00 12 0 Calma 6 Oeste 0 -- -- 100
2019-11-01 11:00:00 10.2 0 Calma 6 Noroeste 0 -- -- 100
2019-11-01 10:00:00 9.5 0 Calma 5 Noroeste 0 -- -- 98
2019-11-01 09:00:00 9.3 3 Sudoeste 6 Sur 0 -- -- 98
2019-11-01 08:00:00 8.8 0 Calma 5 Oeste 0 -- -- 97
2019-11-01 07:00:00 9.1 0 Calma 7 Sur 0 -- -- 96
2019-11-01 06:00:00 9.2 0 Calma 8 Noroeste 0 -- -- 96
2019-11-01 05:00:00 9.6 3 Sur 7 Sudeste 0 -- -- 95
2019-11-01 04:00:00 9.6 0 Calma 5 Este 0.2 -- -- 95
2019-11-01 03:00:00 10.2 0 Calma 4 Este 0 -- -- 95
2019-11-01 02:00:00 10.5 0 Calma 5 Nordeste 0 -- -- 94
2019-11-01 01:00:00 11 0 Calma 7 Sudeste 0 -- -- 94
2019-11-01 00:00:00 11 0 Calma 4 Sudeste 0 -- -- 94
2019-10-31 23:00:00 10.8 0 Calma 5 Nordeste 0 -- -- 90
2019-10-31 22:00:00 11.7 0 Calma 6 Norte 0 -- -- 90
2019-10-31 21:00:00 12.5 0 Calma 10 Sudeste 0 -- -- 87
2019-10-31 20:00:00 13.4 5 Sudeste 10 Noroeste 0.2 -- -- 87
2019-10-31 19:00:00 14.1 5 Norte 17 Este 0 -- -- 86
2019-10-31 18:00:00 14.2 11 Sudeste 23 Sur 8.6 -- -- 83
2019-10-31 17:00:00 17.5 14 Nordeste 27 Norte 7.2 -- -- 74
2019-10-31 16:00:00 20.7 12 Sudoeste 25 Sudoeste 0 -- -- 53
2019-10-31 15:00:00 21.2 14 Sudoeste 26 Sudoeste 0 -- -- 51
2019-10-31 14:00:00 22.5 12 Sudoeste 20 Sudoeste 0 -- -- 48
2019-10-31 13:00:00 21.5 4 Oeste 15 Oeste 0 -- -- 47
2019-10-31 12:00:00 18.8 4 Norte 9 Noroeste 0 -- -- 61
2019-10-31 11:00:00 17.7 4 Oeste 10 Oeste 0 -- -- 63
2019-10-31 10:00:00 14.3 4 Oeste 9 Norte 0 -- -- 82
2019-10-31 09:00:00 12.3 0 Calma 5 Nordeste 0 -- -- 90
2019-10-31 08:00:00 11.5 4 Norte 11 Noroeste 0 -- -- 88
2019-10-31 07:00:00 11.4 3 Este 8 Este 0 -- -- 88
2019-10-31 06:00:00 11.6 0 Calma 8 Sudeste 0 -- -- 85
2019-10-31 05:00:00 12 0 Calma 9 Sudeste 0 -- -- 84
2019-10-31 04:00:00 12.4 4 Norte 9 Norte 0 -- -- 83
2019-10-31 03:00:00 12.3 4 Sudeste 8 Sudeste 0 -- -- 84
2019-10-31 02:00:00 12.2 0 Calma 5 Nordeste 0 -- -- 82
2019-10-31 01:00:00 12.7 2 Sur 5 Este 0 -- -- 81
2019-10-31 00:00:00 13 0 Calma 5 Norte 0 -- -- 79
2019-10-30 23:00:00 13.3 0 Calma 5 Este 0 -- -- 76
2019-10-30 22:00:00 14.3 2 Nordeste 8 Norte 0 -- -- 71
2019-10-30 21:00:00 15.1 0 Calma 8 Este 0 -- -- 67
2019-10-30 20:00:00 15.4 3 Nordeste 12 Este 0 -- -- 67
2019-10-30 19:00:00 16 3 Sudeste 14 Sudeste 0 -- -- 64
2019-10-30 18:00:00 17.1 4 Este 21 Sur 0 -- -- 61
2019-10-30 17:00:00 19.1 8 Sudoeste 27 Sudoeste 0 -- -- 55
2019-10-30 16:00:00 20.8 14 Sudoeste 26 Sudoeste 0 -- -- 52
2019-10-30 15:00:00 22 14 Sudoeste 25 Oeste 0 -- -- 50
2019-10-30 14:00:00 21.8 4 Oeste 9 Oeste 0 -- -- 48
2019-10-30 13:00:00 20.1 2 Sudoeste 10 Noroeste 0 -- -- 47
2019-10-30 12:00:00 17.2 4 Oeste 9 Sudoeste 0 -- -- 60
2019-10-30 11:00:00 13.2 5 Oeste 9 Oeste 0 -- -- 87
2019-10-30 10:00:00 9.9 2 Oeste 5 Oeste 0 -- -- 99
2019-10-30 09:00:00 8.5 0 Calma 3 Oeste 0.2 -- -- 97
2019-10-30 08:00:00 7.8 0 Calma 2 Oeste 0 -- -- 95
2019-10-30 07:00:00 7.6 0 Calma 5 Oeste 0 -- -- 93
2019-10-30 06:00:00 7.9 0 Calma 4 Sudeste 0 -- -- 93
2019-10-30 05:00:00 8.1 0 Calma 2 Nordeste 0 -- -- 91
2019-10-30 04:00:00 8.9 0 Calma 2 Noroeste 0 -- -- 92
2019-10-30 03:00:00 9.1 0 Calma 3 Sudeste 0 -- -- 91
2019-10-30 02:00:00 9.6 0 Calma 5 Norte 0 -- -- 89
2019-10-30 01:00:00 10.1 0 Calma 2 Este 0 -- -- 89
2019-10-30 00:00:00 10.7 0 Calma 5 Este 0 -- -- 87
2019-10-29 23:00:00 11 5 Sudeste 6 Sudeste 0 -- -- 88
2019-10-29 22:00:00 11.5 0 Calma 4 Norte 0 -- -- 82
2019-10-29 21:00:00 13.1 4 Nordeste 6 Norte 0 -- -- 76
2019-10-29 20:00:00 14.2 0 Calma 5 Sur 0 -- -- 74
2019-10-29 19:00:00 15.2 3 Sudeste 8 Este 0 -- -- 71
2019-10-29 18:00:00 16.8 3 Sudeste 12 Sudoeste 0 -- -- 64
2019-10-29 17:00:00 21.2 2 Sur 6 Oeste 0 -- -- 46
2019-10-29 16:00:00 21.3 3 Oeste 10 Oeste 0 -- -- 42
2019-10-29 15:00:00 20.6 4 Oeste 10 Oeste 0 -- -- 47
2019-10-29 14:00:00 18.4 4 Oeste 8 Noroeste 0 -- -- 54
2019-10-29 13:00:00 16.3 3 Oeste 10 Noroeste 0 -- -- 64
2019-10-29 12:00:00 13.4 5 Noroeste 10 Norte 0 -- -- 90
2019-10-29 11:00:00 10.3 2 Sudoeste 9 Sudoeste 0 -- -- 100
2019-10-29 10:00:00 8.9 3 Oeste 8 Oeste 0 -- -- 99
2019-10-29 09:00:00 8.5 3 Oeste 6 Oeste 0 -- -- 98
2019-10-29 08:00:00 7.8 2 Sur 4 Sur 0 -- -- 97
2019-10-29 07:00:00 8 3 Noroeste 5 Oeste 0 -- -- 96
2019-10-29 06:00:00 8.1 0 Calma 6 Norte 0 -- -- 95
2019-10-29 05:00:00 8.1 0 Calma 4 Norte 0 -- -- 94
2019-10-29 04:00:00 7.9 0 Calma 3 Norte 0 -- -- 93
2019-10-29 03:00:00 8.1 0 Calma 3 Nordeste 0 -- -- 91
2019-10-29 02:00:00 8.3 0 Calma 5 Sudeste 0 -- -- 91
2019-10-29 01:00:00 9 4 Norte 6 Norte 0 -- -- 90
2019-10-29 00:00:00 9.1 2 Nordeste 5 Este 0 -- -- 89
2019-10-28 23:00:00 9.7 0 Calma 6 Norte 0 -- -- 87
2019-10-28 22:00:00 10.1 0 Calma 4 Nordeste 0 -- -- 86
2019-10-28 21:00:00 10.8 3 Este 6 Este 0 -- -- 84
2019-10-28 20:00:00 12.2 4 Norte 8 Sudeste 0 -- -- 78
2019-10-28 19:00:00 12.8 2 Noroeste 6 Nordeste 0 -- -- 76
2019-10-28 18:00:00 14.8 5 Este 11 Sudeste 0 -- -- 68
2019-10-28 17:00:00 15.8 3 Oeste 14 Norte 0 -- -- 66
2019-10-28 16:00:00 15.8 3 Sudoeste 9 Oeste 0 -- -- 65
2019-10-28 15:00:00 16 4 Oeste 11 Noroeste 0 -- -- 64
2019-10-28 14:00:00 15.9 5 Norte 15 Sudeste 0 -- -- 66
2019-10-28 13:00:00 14.7 3 Sudeste 10 Oeste 0 -- -- 71
2019-10-28 12:00:00 13.9 3 Oeste 6 Oeste 0 -- -- 75
2019-10-28 11:00:00 12.7 3 Noroeste 8 Oeste 0 -- -- 82
2019-10-28 10:00:00 11.8 3 Sur 11 Sudeste 0 -- -- 85
2019-10-28 09:00:00 10.3 2 Noroeste 4 Oeste 0 -- -- 90
2019-10-28 08:00:00 9.6 2 Norte 8 Norte 0 -- -- 89
2019-10-28 07:00:00 9.9 6 Sudeste 13 Sudeste 0 -- -- 90
2019-10-28 06:00:00 9.6 0 Calma 4 Noroeste 0 -- -- 88
2019-10-28 05:00:00 10 4 Norte 8 Norte 0 -- -- 87
2019-10-28 04:00:00 9.8 0 Calma 6 Sudeste 0 -- -- 86
2019-10-28 03:00:00 10.4 0 Calma 11 Norte 0 -- -- 84
2019-10-28 02:00:00 10.5 0 Calma 5 Norte 0 -- -- 85
2019-10-28 01:00:00 10.6 0 Calma 5 Nordeste 0 -- -- 82
2019-10-28 00:00:00 11 0 Calma 3 Nordeste 0 -- -- 81
2019-10-27 23:00:00 11 0 Calma 5 Norte 0 -- -- 80
2019-10-27 22:00:00 11.4 0 Calma 8 Sudeste 0 -- -- 77
2019-10-27 21:00:00 12.5 3 Nordeste 6 Este 0 -- -- 73
2019-10-27 20:00:00 13.6 3 Nordeste 6 Este 0 -- -- 69
2019-10-27 19:00:00 14.9 2 Este 8 Este 0 -- -- 65
2019-10-27 18:00:00 16.3 4 Este 7 Sudeste 0 -- -- 62
2019-10-27 17:00:00 18.7 2 Sur 7 Norte 0 -- -- 56
2019-10-27 16:00:00 19.9 3 Oeste 8 Sudoeste 0 -- -- 46
2019-10-27 15:00:00 20.2 6 Oeste 12 Noroeste 0 -- -- 45
2019-10-27 14:00:00 20.3 4 Noroeste 10 Sudoeste 0 -- -- 44
2019-10-27 13:00:00 19.2 3 Sudoeste 10 Oeste 0 -- -- 47
2019-10-27 12:00:00 16.8 5 Oeste 12 Sur 0 -- -- 55
2019-10-27 11:00:00 12.1 2 Sudoeste 7 Oeste 0 -- -- 80
2019-10-27 10:00:00 9.7 3 Noroeste 5 Oeste 0 -- -- 95
2019-10-27 09:00:00 7.2 2 Noroeste 6 Norte 0 -- -- 95
2019-10-27 08:00:00 5.9 0 Calma 4 Noroeste 0 -- -- 90
2019-10-27 07:00:00 6.3 0 Calma 5 Este 0 -- -- 89
2019-10-27 06:00:00 6.9 0 Calma 5 Norte 0 -- -- 89
2019-10-27 05:00:00 7.3 2 Este 5 Noroeste 0 -- -- 88
2019-10-27 04:00:00 8 2 Noroeste 8 Sudeste 0 -- -- 85
2019-10-27 03:00:00 8.7 3 Norte 5 Norte 0 -- -- 83
2019-10-27 02:00:00 9 2 Nordeste 8 Sudeste 0 -- -- 81
2019-10-27 01:00:00 10 0 Calma 4 Norte 0 -- -- 77
2019-10-27 00:00:00 10.7 2 Norte 6 Este 0 -- -- 75
2019-10-26 23:00:00 11.3 5 Este 8 Este 0 -- -- 73
2019-10-26 22:00:00 12.1 0 Calma 6 Norte 0 -- -- 69
2019-10-26 21:00:00 13.1 4 Norte 7 Norte 0 -- -- 64
2019-10-26 20:00:00 15 4 Norte 11 Noroeste 0 -- -- 56
2019-10-26 19:00:00 17.2 3 Sudeste 11 Sudoeste 0 -- -- 48
2019-10-26 18:00:00 22.2 3 Noroeste 10 Oeste 0 -- -- 38
2019-10-26 17:00:00 22.4 3 Oeste 7 Oeste 0 -- -- 36
2019-10-26 16:00:00 21.7 5 Oeste 10 Oeste 0 -- -- 36
2019-10-26 15:00:00 20.5 4 Oeste 10 Oeste 0 -- -- 39
2019-10-26 14:00:00 18 3 Oeste 8 Oeste 0 -- -- 47
2019-10-26 13:00:00 16.1 5 Oeste 9 Oeste 0 -- -- 55
2019-10-26 12:00:00 12.3 3 Oeste 5 Oeste 0 -- -- 69
2019-10-26 11:00:00 8.7 0 Calma 4 Oeste 0 -- -- 99
2019-10-26 10:00:00 5.8 0 Calma 3 Este 0 -- -- 96
2019-10-26 09:00:00 5 0 Calma 6 Norte 0 -- -- 93
2019-10-26 08:00:00 4.8 0 Calma 3 Este 0 -- -- 91
2019-10-26 07:00:00 5.7 0 Calma 3 Nordeste 0 -- -- 91
2019-10-26 06:00:00 5.9 0 Calma 5 Norte 0 -- -- 89
2019-10-26 05:00:00 6.9 5 Norte 7 Norte 0 -- -- 89
2019-10-26 04:00:00 7 2 Este 4 Nordeste 0 -- -- 89
2019-10-26 03:00:00 7.4 0 Calma 3 Este 0 -- -- 87
2019-10-26 02:00:00 8.1 0 Calma 5 Norte 0 -- -- 85
2019-10-26 01:00:00 8.7 3 Este 5 Este 0 -- -- 83
2019-10-26 00:00:00 9.2 0 Calma 3 Este 0 -- -- 82
2019-10-25 23:00:00 9.9 0 Calma 7 Norte 0 -- -- 79
2019-10-25 22:00:00 11.9 2 Norte 9 Este 0 -- -- 68
2019-10-25 21:00:00 13 3 Este 8 Nordeste 0 -- -- 65
2019-10-25 20:00:00 14.4 3 Sur 16 Sudeste 0 -- -- 58
2019-10-25 19:00:00 16.2 5 Sudeste 24 Sudoeste 0 -- -- 51
2019-10-25 18:00:00 19.5 14 Sudoeste 27 Sudoeste 0 -- -- 42
2019-10-25 17:00:00 21.2 12 Sudoeste 22 Sudoeste 0.2 -- -- 33
2019-10-25 16:00:00 21.6 8 Sudoeste 12 Sudoeste 0 -- -- 32
2019-10-25 15:00:00 19.7 3 Oeste 10 Oeste 0 -- -- 38
2019-10-25 14:00:00 17.3 3 Oeste 8 Noroeste 0 -- -- 50
2019-10-25 13:00:00 14 4 Oeste 8 Sur 0 -- -- 74
2019-10-25 12:00:00 9 3 Sudeste 6 Sudeste 0 -- -- 99
2019-10-25 11:00:00 7.2 0 Calma 7 Oeste 0 -- -- 97
2019-10-25 10:00:00 6.5 5 Oeste 11 Oeste 0 -- -- 96
2019-10-25 09:00:00 6 7 Sudeste 13 Este 0 -- -- 94
2019-10-25 08:00:00 5.7 0 Calma 8 Sudeste 0 -- -- 93
2019-10-25 07:00:00 6 3 Sudeste 8 Norte 0 -- -- 92
2019-10-25 06:00:00 6.2 3 Sudeste 9 Norte 0 -- -- 90
2019-10-25 05:00:00 6.9 2 Sudeste 9 Sudeste 0 -- -- 91
2019-10-25 04:00:00 7.1 3 Norte 7 Sudeste 0 -- -- 89
2019-10-25 03:00:00 7.4 0 Calma 5 Oeste 0 -- -- 88
2019-10-25 02:00:00 7.7 3 Este 5 Este 0 -- -- 88
2019-10-25 01:00:00 8.2 3 Este 5 Este 0 -- -- 86
2019-10-25 00:00:00 8.9 0 Calma 4 Este 0 -- -- 83
2019-10-24 23:00:00 9.6 0 Calma 6 Oeste 0 -- -- 79
2019-10-24 22:00:00 10.8 3 Este 8 Este 0 -- -- 73
2019-10-24 21:00:00 11.9 4 Este 9 Este 0 -- -- 67
2019-10-24 20:00:00 12.9 2 Este 10 Este 0 -- -- 64
2019-10-24 19:00:00 14.1 3 Este 9 Oeste 0 -- -- 62
2019-10-24 18:00:00 17.3 12 Oeste 28 Oeste 0 -- -- 49
2019-10-24 17:00:00 18.1 17 Oeste 30 Oeste 0 -- -- 52
2019-10-24 16:00:00 17.2 11 Sudoeste 23 Sudoeste 0 -- -- 54
2019-10-24 15:00:00 17.3 12 Sudoeste 22 Sudoeste 0 -- -- 55
2019-10-24 14:00:00 17.3 10 Sudoeste 16 Sudoeste 0 -- -- 54
2019-10-24 13:00:00 15.1 5 Sudoeste 11 Noroeste 0 -- -- 66
2019-10-24 12:00:00 12.8 5 Noroeste 10 Oeste 0 -- -- 80
2019-10-24 11:00:00 10.5 3 Oeste 5 Noroeste 0 -- -- 94
2019-10-24 10:00:00 8.7 3 Norte 7 Norte 0 -- -- 95
2019-10-24 09:00:00 8 4 Sudeste 7 Sudeste 0 -- -- 94
2019-10-24 08:00:00 7.7 0 Calma 7 Norte 0 -- -- 92
2019-10-24 07:00:00 7.9 3 Nordeste 7 Sudeste 0 -- -- 90
2019-10-24 06:00:00 8.7 0 Calma 9 Oeste 0 -- -- 88
2019-10-24 05:00:00 9.9 5 Este 8 Este 0 -- -- 89
2019-10-24 04:00:00 10.1 3 Nordeste 11 Sudeste 0 -- -- 89
2019-10-24 03:00:00 9.6 4 Norte 8 Oeste 0 -- -- 89
2019-10-24 02:00:00 10.3 3 Este 7 Oeste 0 -- -- 88
2019-10-24 01:00:00 10.2 0 Calma 7 Oeste 0 -- -- 88
2019-10-24 00:00:00 10.4 3 Nordeste 8 Este 0 -- -- 83
2019-10-23 23:00:00 10.3 4 Este 9 Este 0 -- -- 81
2019-10-23 22:00:00 11.4 4 Este 12 Sudoeste 0 -- -- 76
2019-10-23 21:00:00 11.8 3 Sudeste 10 Sudoeste 0 -- -- 75
2019-10-23 20:00:00 12.6 3 Este 25 Sudoeste 0 -- -- 69
2019-10-23 19:00:00 13.8 6 Sudeste 20 Oeste 0 -- -- 67
2019-10-23 18:00:00 14.4 0 Calma 10 Sudeste 0 -- -- 74
2019-10-23 17:00:00 15.4 0 Calma 8 Noroeste 0 -- -- 76
2019-10-23 16:00:00 16.1 3 Norte 9 Oeste 0 -- -- 72
2019-10-23 15:00:00 15 2 Sudoeste 7 Oeste 0 -- -- 77
2019-10-23 14:00:00 14.2 2 Noroeste 6 Oeste 0 -- -- 82
2019-10-23 13:00:00 13.5 0 Calma 17 Sudeste 0 -- -- 87
2019-10-23 12:00:00 13.1 6 Nordeste 15 Norte 0 -- -- 85
2019-10-23 11:00:00 12.4 6 Noroeste 19 Noroeste 0 -- -- 82
2019-10-23 10:00:00 11.4 12 Sudoeste 27 Oeste 1.6 -- -- 89
2019-10-23 09:00:00 10.9 6 Nordeste 18 Sudeste 0.4 -- -- 94
2019-10-23 08:00:00 10.2 4 Noroeste 19 Oeste 0 -- -- 91
2019-10-23 07:00:00 10.1 6 Este 14 Sudeste 0 -- -- 90
2019-10-23 06:00:00 10.4 7 Este 23 Este 0 -- -- 90
2019-10-23 05:00:00 10.5 3 Norte 17 Este 0.6 -- -- 93
2019-10-23 04:00:00 10.8 4 Este 8 Este 6.2 -- -- 94
2019-10-23 03:00:00 11.6 3 Oeste 12 Oeste 10.2 -- -- 95
2019-10-23 02:00:00 11.8 3 Sudeste 8 Sur 9 -- -- 95
2019-10-23 01:00:00 11.7 2 Sur 14 Oeste 9.8 -- -- 95
2019-10-23 00:00:00 11.7 2 Sur 12 Nordeste 6.2 -- -- 94
2019-10-22 23:00:00 11.6 5 Nordeste 38 Sudoeste 14 -- -- 92
2019-10-22 22:00:00 12.8 9 Oeste 15 Sudoeste 25.6 -- -- 95
2019-10-22 21:00:00 12.9 4 Este 31 Nordeste 13.6 -- -- 92
2019-10-22 20:00:00 12.9 13 Nordeste 94 Sudoeste 9 -- -- 90
2019-10-22 19:00:00 12.3 13 Oeste 44 Sudoeste 2.6 -- -- 96
2019-10-22 18:00:00 11.1 5 Noroeste 16 Oeste 0.2 -- -- 94
2019-10-22 17:00:00 11.3 4 Oeste 10 Norte 1.6 -- -- 94
2019-10-22 16:00:00 11.1 7 Norte 15 Este 3 -- -- 91
2019-10-22 15:00:00 10.4 9 Sudeste 16 Sudeste 3.2 -- -- 91
2019-10-22 14:00:00 10.5 3 Norte 8 Noroeste 1.6 -- -- 90
2019-10-22 13:00:00 10.6 6 Nordeste 14 Este 2.6 -- -- 91
2019-10-22 12:00:00 10 0 Calma 10 Este 2.4 -- -- 91
2019-10-22 11:00:00 9.7 9 Este 14 Este 1.8 -- -- 91
2019-10-22 10:00:00 9.1 3 Sur 8 Sudeste 0.4 -- -- 90
2019-10-22 09:00:00 8.9 4 Norte 10 Este 1.6 -- -- 89
2019-10-22 08:00:00 8.5 2 Sudeste 16 Sudeste 0 -- -- 88
2019-10-22 07:00:00 8.4 5 Sudeste 10 Sudeste 0 -- -- 88
2019-10-22 06:00:00 8.4 4 Norte 10 Sudeste 0 -- -- 87
2019-10-22 05:00:00 7.8 0 Calma 5 Sudeste 0 -- -- 87
2019-10-22 04:00:00 8.2 0 Calma 7 Nordeste 0 -- -- 86
2019-10-22 03:00:00 8.2 2 Noroeste 10 Este 0 -- -- 83
2019-10-22 02:00:00 8.1 3 Sudeste 8 Norte 0 -- -- 84
2019-10-22 01:00:00 8.9 3 Norte 9 Este 0 -- -- 81
2019-10-22 00:00:00 9 6 Sudeste 11 Sudeste 0 -- -- 80